Time;durP1;ratioP1;P1;durP2;ratioP2;P2;SDS_P1;SDS_P2;PMS_P1;PMS_P2;Temp;Humidity;BMP_temperature;BMP_pressure;BME280_temperature;BME280_humidity;BME280_pressure;Samples;Min_cycle;Max_cycle;Signal;HPM_P1;HPM_P2
2021/10/16 00:02:19;;;;;;;6.80;4.90;;;;;;;22.63;55.98;100580.60;1715389;82;20909;-49
2021/10/16 00:04:45;;;;;;;6.92;4.70;;;;;;;22.63;55.98;100578.41;1712014;81;21646;-49
2021/10/16 00:07:11;;;;;;;6.30;4.45;;;;;;;22.62;55.97;100580.93;1698852;82;21163;-53
2021/10/16 00:09:37;;;;;;;5.62;4.53;;;;;;;22.61;55.98;100571.01;1729948;80;21566;-53
2021/10/16 00:12:05;;;;;;;6.65;4.40;;;;;;;22.61;55.97;100568.23;1719903;82;21005;-50
2021/10/16 00:14:31;;;;;;;6.33;4.37;;;;;;;22.59;55.96;100568.56;1703190;82;21179;-52
2021/10/16 00:16:57;;;;;;;6.10;4.60;;;;;;;22.60;55.95;100577.70;1715408;82;21087;-49
2021/10/16 00:19:24;;;;;;;5.90;4.35;;;;;;;22.58;55.93;100573.86;1735660;80;21352;-50
2021/10/16 00:21:50;;;;;;;6.72;4.92;;;;;;;22.57;55.93;100576.42;1729219;80;21071;-51
2021/10/16 00:24:16;;;;;;;4.92;4.25;;;;;;;22.56;55.92;100566.47;1736662;80;21561;-49
2021/10/16 00:26:42;;;;;;;5.95;4.45;;;;;;;22.56;55.89;100576.17;1753713;80;20891;-49
2021/10/16 00:29:09;;;;;;;5.90;4.35;;;;;;;22.55;55.89;100568.18;1721227;81;21176;-49
2021/10/16 00:31:34;;;;;;;6.28;4.85;;;;;;;22.55;55.86;100580.09;1719451;81;21350;-48
2021/10/16 00:34:00;;;;;;;6.37;4.55;;;;;;;22.54;55.88;100573.48;1719646;81;20917;-52
2021/10/16 00:36:26;;;;;;;7.35;4.55;;;;;;;22.54;55.87;100566.55;1715197;82;20934;-49
2021/10/16 00:38:53;;;;;;;6.22;4.40;;;;;;;22.52;55.84;100569.68;1694927;81;21589;-50
2021/10/16 00:41:19;;;;;;;5.97;4.42;;;;;;;22.53;55.83;100567.13;1696061;81;21236;-49
2021/10/16 00:43:45;;;;;;;5.83;4.72;;;;;;;22.51;55.81;100563.89;1695119;82;21537;-49
2021/10/16 00:46:11;;;;;;;6.37;4.55;;;;;;;22.52;55.82;100555.00;1740438;80;20917;-50
2021/10/16 00:48:37;;;;;;;6.47;4.97;;;;;;;22.51;55.79;100551.41;1746498;80;20923;-49
2021/10/16 00:51:03;;;;;;;6.50;4.65;;;;;;;22.50;55.78;100544.80;1728573;80;21106;-51
2021/10/16 00:53:29;;;;;;;6.35;4.85;;;;;;;22.51;55.78;100549.21;1722341;81;20980;-48
2021/10/16 00:55:55;;;;;;;6.15;4.28;;;;;;;22.49;55.76;100541.22;1713787;82;21622;-53
2021/10/16 00:58:21;;;;;;;5.53;4.20;;;;;;;22.49;55.76;100536.27;1700610;83;20970;-50
2021/10/16 01:00:47;;;;;;;6.65;4.75;;;;;;;22.48;55.73;100534.64;1715846;82;21083;-49
2021/10/16 01:03:13;;;;;;;6.37;4.70;;;;;;;22.48;55.72;100540.19;1712198;81;22416;-52
2021/10/16 01:05:39;;;;;;;6.22;4.42;;;;;;;22.47;55.72;100531.06;1705886;81;21008;-48
2021/10/16 01:08:10;;;;;;;6.87;4.70;;;;;;;22.48;55.69;100531.87;1709287;80;21224;-51
2021/10/16 01:10:36;;;;;;;6.75;4.87;;;;;;;22.46;55.68;100535.55;1732180;81;21012;-47
2021/10/16 01:13:03;;;;;;;6.55;4.72;;;;;;;22.45;55.66;100545.81;1729129;80;21036;-50
2021/10/16 01:15:29;;;;;;;7.70;4.83;;;;;;;22.45;55.66;100536.11;1735055;80;21041;-52
2021/10/16 01:17:55;;;;;;;6.25;4.45;;;;;;;22.45;55.62;100532.55;1686142;83;21074;-52
2021/10/16 01:20:23;;;;;;;6.35;4.70;;;;;;;22.43;55.63;100524.56;1722817;81;21522;-49
2021/10/16 01:22:51;;;;;;;5.37;4.05;;;;;;;22.44;55.62;100522.03;1721412;81;21115;-48
2021/10/16 01:25:20;;;;;;;7.25;5.03;;;;;;;22.43;55.60;100519.02;1696115;82;21046;-49
2021/10/16 01:27:47;;;;;;;6.40;4.42;;;;;;;22.43;55.61;100516.82;1721966;81;21068;-49
2021/10/16 01:30:19;;;;;;;7.40;4.80;;;;;;;22.43;55.58;100512.09;1721344;81;21081;-50
2021/10/16 01:32:45;;;;;;;6.10;4.35;;;;;;;22.42;55.58;100523.50;1727781;81;21582;-50
2021/10/16 01:35:12;;;;;;;6.22;4.58;;;;;;;22.41;55.56;100525.45;1720216;81;21073;-51
2021/10/16 01:37:44;;;;;;;6.55;4.97;;;;;;;22.42;55.56;100526.28;1722478;81;21016;-51
2021/10/16 01:40:11;;;;;;;7.20;4.75;;;;;;;22.41;55.54;100532.96;1721727;81;21115;-49
2021/10/16 01:42:42;;;;;;;6.65;4.95;;;;;;;22.42;55.51;100531.82;1703541;81;21468;-50
2021/10/16 01:45:15;;;;;;;5.47;4.55;;;;;;;22.40;55.50;100522.48;1721995;81;21104;-50
2021/10/16 01:47:47;;;;;;;7.35;4.97;;;;;;;22.39;55.50;100514.48;1721357;81;21110;-49
2021/10/16 01:50:13;;;;;;;6.83;4.70;;;;;;;22.40;55.48;100511.95;1714943;82;21101;-49
2021/10/16 01:52:40;;;;;;;7.55;5.28;;;;;;;22.38;55.46;100514.23;1721200;81;21028;-49
2021/10/16 01:55:07;;;;;;;6.45;4.40;;;;;;;22.37;55.45;100514.81;1726360;81;21024;-49
2021/10/16 01:57:33;;;;;;;6.15;4.37;;;;;;;22.37;55.45;100501.52;1712258;81;22137;-53
2021/10/16 01:59:59;;;;;;;5.60;4.37;;;;;;;22.37;55.42;100506.50;1717723;81;21547;-50
2021/10/16 02:02:25;;;;;;;6.72;4.72;;;;;;;22.36;55.41;100499.35;1752632;80;21676;-50
2021/10/16 02:04:51;;;;;;;6.10;4.65;;;;;;;22.36;55.40;100495.20;1733641;80;21785;-51
2021/10/16 02:07:18;;;;;;;6.17;4.90;;;;;;;22.35;55.39;100503.27;1712745;81;21422;-51
2021/10/16 02:09:44;;;;;;;6.33;4.45;;;;;;;22.35;55.38;100505.22;1718714;81;21180;-50
2021/10/16 02:12:10;;;;;;;6.30;4.60;;;;;;;22.35;55.36;100506.03;1754090;80;21789;-52
2021/10/16 02:14:36;;;;;;;6.83;4.60;;;;;;;22.35;55.36;100505.22;1710136;81;20920;-49
2021/10/16 02:17:03;;;;;;;5.83;4.42;;;;;;;22.35;55.34;100507.98;1710094;81;20900;-49
2021/10/16 02:19:29;;;;;;;7.40;5.03;;;;;;;22.35;55.31;100498.29;1717442;82;21069;-50
2021/10/16 02:21:55;;;;;;;5.50;4.20;;;;;;;22.35;55.31;100506.03;1718996;81;23275;-49
2021/10/16 02:24:21;;;;;;;6.67;4.55;;;;;;;22.32;55.30;100503.34;1717119;81;21091;-48
2021/10/16 02:26:47;;;;;;;6.00;3.98;;;;;;;22.33;55.28;100501.39;1704608;82;21182;-51
2021/10/16 02:29:13;;;;;;;6.33;4.67;;;;;;;22.33;55.29;100501.39;1744672;80;21679;-49
2021/10/16 02:31:39;;;;;;;5.92;4.37;;;;;;;22.33;55.26;100500.00;1723871;81;20950;-50
2021/10/16 02:34:05;;;;;;;6.08;4.20;;;;;;;22.33;55.25;100495.84;1716352;81;21283;-49
2021/10/16 02:36:31;;;;;;;5.45;4.25;;;;;;;22.31;55.23;100494.81;1716817;81;21000;-50
2021/10/16 02:38:57;;;;;;;5.97;4.40;;;;;;;22.31;55.21;100492.05;1713427;81;21118;-51
2021/10/16 02:41:23;;;;;;;6.45;4.22;;;;;;;22.32;55.22;100492.83;1732410;80;21714;-50
2021/10/16 02:43:49;;;;;;;5.90;4.30;;;;;;;22.31;55.20;100496.20;1719180;81;20999;-48
2021/10/16 02:46:15;;;;;;;5.62;4.15;;;;;;;22.32;55.17;100492.83;1719270;81;21057;-49
2021/10/16 02:48:42;;;;;;;7.55;4.28;;;;;;;22.30;55.17;100487.64;1753150;80;21050;-51
2021/10/16 02:51:08;;;;;;;6.70;4.58;;;;;;;22.31;55.17;100492.61;1747681;80;21517;-51
2021/10/16 02:53:35;;;;;;;5.22;4.42;;;;;;;22.30;55.15;100486.83;1746556;80;20955;-49
2021/10/16 02:56:01;;;;;;;6.30;4.20;;;;;;;22.30;55.15;100490.98;1751945;80;21083;-50
2021/10/16 02:58:27;;;;;;;6.15;4.28;;;;;;;22.28;55.13;100487.16;1751810;80;21317;-50
2021/10/16 03:00:53;;;;;;;5.95;3.98;;;;;;;22.29;55.11;100491.55;1694852;81;21043;-51
2021/10/16 03:03:20;;;;;;;5.80;4.60;;;;;;;22.29;55.11;100493.51;1750897;80;21013;-49
2021/10/16 03:05:46;;;;;;;5.25;4.37;;;;;;;22.30;55.11;100489.59;1727883;80;21017;-50
2021/10/16 03:08:12;;;;;;;5.15;3.72;;;;;;;22.30;55.12;100495.14;1708696;82;20930;-50
2021/10/16 03:10:38;;;;;;;4.42;3.83;;;;;;;22.33;55.11;100491.69;1710236;82;22214;-47
2021/10/16 03:13:04;;;;;;;4.90;3.42;;;;;;;22.36;55.07;100488.84;1714706;81;21108;-48
2021/10/16 03:15:30;;;;;;;5.33;3.75;;;;;;;22.39;55.05;100491.73;1710721;82;21024;-47
2021/10/16 03:17:56;;;;;;;4.95;3.35;;;;;;;22.42;54.99;100484.70;1701983;82;21425;-51
2021/10/16 03:20:22;;;;;;;5.25;3.60;;;;;;;22.44;54.97;100483.80;1710894;81;21131;-48
2021/10/16 03:22:48;;;;;;;5.05;3.62;;;;;;;22.46;54.92;100485.07;1715992;82;21371;-47
2021/10/16 03:25:14;;;;;;;5.53;3.80;;;;;;;22.49;54.89;100490.53;1699725;81;20907;-49
2021/10/16 03:27:40;;;;;;;4.35;3.40;;;;;;;22.51;54.83;100490.42;1704259;82;21100;-50
2021/10/16 03:30:07;;;;;;;4.33;3.08;;;;;;;22.54;54.82;100482.80;1755479;80;21084;-49
2021/10/16 03:32:34;;;;;;;4.35;3.02;;;;;;;22.56;54.77;100479.13;1749087;81;21052;-47
2021/10/16 03:35:00;;;;;;;4.08;3.20;;;;;;;22.59;54.74;100484.56;1700779;81;22081;-50
2021/10/16 03:37:26;;;;;;;4.70;2.92;;;;;;;22.61;54.73;100490.59;1736841;81;20907;-48
2021/10/16 03:39:52;;;;;;;4.00;3.15;;;;;;;22.63;54.69;100479.39;1735033;80;20992;-47
2021/10/16 03:42:17;;;;;;;4.00;3.02;;;;;;;22.65;54.67;100479.88;1696900;82;20913;-48
2021/10/16 03:44:43;;;;;;;4.05;2.95;;;;;;;22.67;54.64;100478.13;1705516;82;21767;-49
2021/10/16 03:47:09;;;;;;;3.85;2.37;;;;;;;22.70;54.62;100483.84;1702062;82;21248;-50
2021/10/16 03:49:35;;;;;;;3.42;2.50;;;;;;;22.73;54.60;100480.98;1718478;81;20961;-48
2021/10/16 03:52:03;;;;;;;3.15;2.47;;;;;;;22.75;54.58;100481.44;1728459;81;21032;-50
2021/10/16 03:54:29;;;;;;;3.50;2.52;;;;;;;22.77;54.55;100476.38;1714028;81;21099;-47
2021/10/16 03:56:55;;;;;;;3.52;2.30;;;;;;;22.80;54.55;100483.19;1725329;81;20988;-50
2021/10/16 03:59:23;;;;;;;3.25;2.50;;;;;;;22.81;54.53;100479.27;1729184;81;21260;-50
2021/10/16 04:01:49;;;;;;;2.87;2.33;;;;;;;22.83;54.52;100474.21;1729462;81;21032;-48
2021/10/16 04:04:15;;;;;;;3.55;2.70;;;;;;;22.85;54.50;100480.21;1709993;81;21663;-49
2021/10/16 04:06:41;;;;;;;3.87;2.55;;;;;;;22.87;54.51;100470.98;1722182;81;20987;-50
2021/10/16 04:09:07;;;;;;;2.92;2.33;;;;;;;22.89;54.49;100472.83;1720840;82;20897;-50
2021/10/16 04:11:33;;;;;;;3.10;2.20;;;;;;;22.90;54.47;100470.30;1723051;82;22196;-48
2021/10/16 04:13:59;;;;;;;2.67;2.02;;;;;;;22.93;54.46;100471.81;1719992;81;21024;-48
2021/10/16 04:16:25;;;;;;;3.22;2.42;;;;;;;22.95;54.47;100475.64;1723305;81;21130;-51
2021/10/16 04:18:51;;;;;;;3.10;2.10;;;;;;;22.96;54.45;100465.56;1725681;81;21064;-47
2021/10/16 04:21:17;;;;;;;2.98;2.20;;;;;;;22.99;54.45;100470.45;1722880;81;20992;-48
2021/10/16 04:23:43;;;;;;;2.80;1.95;;;;;;;23.01;54.42;100465.36;1718185;81;21284;-47
2021/10/16 04:26:09;;;;;;;2.70;2.17;;;;;;;23.03;54.42;100458.09;1717555;82;21068;-50
2021/10/16 04:28:35;;;;;;;2.72;2.27;;;;;;;23.05;54.42;100458.55;1719767;81;20909;-48
2021/10/16 04:31:01;;;;;;;2.83;1.80;;;;;;;23.07;54.41;100450.70;1726773;82;21086;-47
2021/10/16 04:33:27;;;;;;;3.45;2.25;;;;;;;23.09;54.40;100456.13;1730689;81;21664;-49
2021/10/16 04:35:53;;;;;;;2.40;1.82;;;;;;;23.12;54.39;100457.43;1718431;82;20974;-48
2021/10/16 04:38:19;;;;;;;2.83;1.90;;;;;;;23.13;54.38;100454.29;1718934;81;21088;-50
2021/10/16 04:40:45;;;;;;;2.58;2.02;;;;;;;23.15;54.40;100458.13;1732437;81;21158;-49
2021/10/16 04:43:11;;;;;;;3.15;2.02;;;;;;;23.17;54.39;100458.00;1711327;81;21205;-48
2021/10/16 04:45:38;;;;;;;2.55;2.10;;;;;;;23.19;54.36;100450.16;1734133;81;20908;-47
2021/10/16 04:48:07;;;;;;;2.70;1.92;;;;;;;23.21;54.36;100452.59;1712773;82;21165;-45
2021/10/16 04:50:33;;;;;;;2.30;1.90;;;;;;;23.23;54.36;100446.11;1723582;81;21176;-49
2021/10/16 04:52:59;;;;;;;2.58;1.90;;;;;;;23.26;54.35;100446.80;1718324;82;20991;-50
2021/10/16 04:55:25;;;;;;;2.72;2.00;;;;;;;23.28;54.35;100450.63;1730269;81;21179;-51
2021/10/16 04:57:51;;;;;;;3.02;2.10;;;;;;;23.29;54.34;100448.91;1708446;81;21128;-48
2021/10/16 05:00:17;;;;;;;3.27;2.15;;;;;;;23.32;54.35;100452.38;1728933;81;21343;-49
2021/10/16 05:02:44;;;;;;;2.67;2.22;;;;;;;23.33;54.34;100456.78;1751452;80;21119;-48
2021/10/16 05:05:10;;;;;;;2.70;1.98;;;;;;;23.34;54.33;100452.83;1752939;80;21458;-50
2021/10/16 05:07:36;;;;;;;3.45;2.20;;;;;;;23.35;54.33;100451.67;1751572;80;21501;-49
2021/10/16 05:10:04;;;;;;;3.62;2.40;;;;;;;23.37;54.31;100463.84;1746954;80;20980;-49
2021/10/16 05:12:30;;;;;;;3.00;2.10;;;;;;;23.37;54.32;100461.06;1751487;80;21145;-47
2021/10/16 05:14:56;;;;;;;2.77;2.25;;;;;;;23.38;54.31;100465.47;1717045;81;20904;-47
2021/10/16 05:17:22;;;;;;;4.00;2.60;;;;;;;23.39;54.30;100474.82;1713332;81;21022;-47
2021/10/16 05:19:48;;;;;;;3.60;2.58;;;;;;;23.38;54.30;100470.41;1706684;82;21480;-48
2021/10/16 05:22:14;;;;;;;4.10;2.40;;;;;;;23.39;54.29;100471.23;1710259;81;20929;-49
2021/10/16 05:24:40;;;;;;;3.30;2.30;;;;;;;23.40;54.29;100468.69;1702473;81;21500;-52
2021/10/16 05:27:07;;;;;;;3.58;2.55;;;;;;;23.39;54.25;100473.43;1717621;81;20909;-48
2021/10/16 05:29:33;;;;;;;3.30;2.40;;;;;;;23.39;54.26;100483.15;1722069;80;21560;-48
2021/10/16 05:31:59;;;;;;;3.52;2.70;;;;;;;23.38;54.25;100477.95;1723389;81;21002;-49
2021/10/16 05:34:25;;;;;;;3.35;2.35;;;;;;;23.36;54.25;100483.84;1753430;80;21096;-48
2021/10/16 05:36:52;;;;;;;3.40;2.60;;;;;;;23.35;54.25;100487.77;1715780;82;21238;-48
2021/10/16 05:39:18;;;;;;;4.12;2.77;;;;;;;23.33;54.24;100481.77;1718200;81;21478;-49
2021/10/16 05:41:44;;;;;;;3.05;2.58;;;;;;;23.31;54.28;100491.57;1743821;80;20984;-47
2021/10/16 05:44:10;;;;;;;2.70;2.05;;;;;;;23.30;54.30;100495.52;1742627;80;21456;-48
2021/10/16 05:46:37;;;;;;;4.22;2.62;;;;;;;23.29;54.30;100493.33;1740821;80;21001;-49
2021/10/16 05:49:06;;;;;;;4.47;2.77;;;;;;;23.28;54.30;100490.31;1731654;80;21509;-48
2021/10/16 05:51:32;;;;;;;4.60;2.85;;;;;;;23.28;54.32;100499.20;1748756;80;21046;-49
2021/10/16 05:53:58;;;;;;;2.92;2.40;;;;;;;23.26;54.29;100495.38;1714522;81;21040;-48
2021/10/16 05:56:24;;;;;;;3.95;2.87;;;;;;;23.25;54.32;100494.35;1716505;81;21059;-49
2021/10/16 05:58:50;;;;;;;3.90;2.67;;;;;;;23.26;54.34;100494.56;1737805;80;21000;-49
2021/10/16 06:01:16;;;;;;;3.45;2.60;;;;;;;23.24;54.33;100496.31;1741029;80;21432;-49
2021/10/16 06:03:42;;;;;;;4.22;2.60;;;;;;;23.23;54.34;100502.44;1730436;80;21463;-50
2021/10/16 06:06:09;;;;;;;3.62;2.65;;;;;;;23.23;54.33;100507.17;1732683;80;20913;-50
2021/10/16 06:08:35;;;;;;;4.17;2.98;;;;;;;23.22;54.32;100499.99;1736928;81;21601;-50
2021/10/16 06:11:02;;;;;;;3.75;2.87;;;;;;;23.22;54.32;100501.37;1719502;81;20956;-48
2021/10/16 06:13:28;;;;;;;3.87;2.80;;;;;;;23.21;54.33;100503.94;1728576;81;21534;-48
2021/10/16 06:15:54;;;;;;;3.55;2.60;;;;;;;23.20;54.34;100513.42;1725319;81;21111;-50
2021/10/16 06:18:24;;;;;;;3.52;2.65;;;;;;;23.20;54.36;100507.30;1730522;81;21068;-48
2021/10/16 06:20:48;;;;;;;4.28;2.92;;;;;;;23.20;54.36;100505.09;1729664;81;21208;-49
2021/10/16 06:23:14;;;;;;;3.52;2.45;;;;;;;23.18;54.35;100511.55;1729291;81;21622;-48
2021/10/16 06:25:40;;;;;;;4.17;2.67;;;;;;;23.18;54.33;100512.36;1725923;81;21406;-50
2021/10/16 06:28:06;;;;;;;3.92;2.98;;;;;;;23.18;54.37;100511.55;1726684;81;21182;-48
2021/10/16 06:30:32;;;;;;;3.80;2.75;;;;;;;23.17;54.35;100521.83;1723896;81;21832;-49
2021/10/16 06:32:58;;;;;;;4.35;3.00;;;;;;;23.16;54.36;100525.78;1723679;80;20864;-49
2021/10/16 06:35:25;;;;;;;2.87;2.40;;;;;;;23.16;54.34;100529.95;1743218;80;21101;-48
2021/10/16 06:37:51;;;;;;;4.30;3.08;;;;;;;23.15;54.34;100528.31;1706380;81;21114;-48
2021/10/16 06:40:17;;;;;;;4.75;2.77;;;;;;;23.15;54.32;100521.95;1711836;81;21134;-48
2021/10/16 06:42:43;;;;;;;3.72;2.92;;;;;;;23.16;54.32;100531.33;1734301;81;20983;-48
2021/10/16 06:45:09;;;;;;;3.98;2.90;;;;;;;23.15;54.33;100531.09;1742733;80;20892;-49
2021/10/16 06:47:35;;;;;;;3.77;3.08;;;;;;;23.14;54.30;100527.26;1754234;80;21144;-47
2021/10/16 06:50:02;;;;;;;3.90;2.90;;;;;;;23.13;54.30;100537.55;1753897;80;21339;-47
2021/10/16 06:52:28;;;;;;;4.40;3.08;;;;;;;23.13;54.29;100540.89;1745026;80;21044;-52
2021/10/16 06:54:54;;;;;;;4.33;3.15;;;;;;;23.12;54.29;100529.01;1727780;81;21036;-48
2021/10/16 06:57:20;;;;;;;3.50;2.72;;;;;;;23.13;54.30;100535.34;1725500;81;20905;-47
2021/10/16 06:59:46;;;;;;;13.15;4.72;;;;;;;23.11;54.30;100524.60;1712524;81;21938;-47
2021/10/16 07:02:12;;;;;;;19.52;5.90;;;;;;;23.12;54.31;100526.23;1729578;81;21209;-50
2021/10/16 07:04:38;;;;;;;26.30;7.90;;;;;;;23.12;54.29;100535.13;1723330;81;20939;-47
2021/10/16 07:07:04;;;;;;;23.90;5.83;;;;;;;23.12;54.32;100528.19;1721148;81;21075;-48
2021/10/16 07:09:30;;;;;;;21.07;5.42;;;;;;;23.12;54.32;100535.13;1723499;81;20940;-51
2021/10/16 07:11:57;;;;;;;23.05;6.75;;;;;;;23.12;54.34;100538.72;1722455;81;21142;-49
2021/10/16 07:14:23;;;;;;;28.05;7.12;;;;;;;23.13;54.35;100536.73;1723962;81;21795;-48
2021/10/16 07:16:49;;;;;;;18.73;6.03;;;;;;;23.11;54.33;100532.92;1722898;82;20987;-47
2021/10/16 07:19:15;;;;;;;25.90;6.53;;;;;;;23.12;54.35;100530.39;1724503;81;21494;-47
2021/10/16 07:21:41;;;;;;;22.05;5.75;;;;;;;23.12;54.36;100530.97;1744986;80;21010;-49
2021/10/16 07:24:07;;;;;;;16.52;4.67;;;;;;;23.13;54.36;100532.56;1713510;81;21001;-48
2021/10/16 07:26:34;;;;;;;12.03;4.00;;;;;;;23.13;54.40;100520.08;1719403;81;21405;-47
2021/10/16 07:29:00;;;;;;;14.63;4.53;;;;;;;23.12;54.41;100533.74;1741189;80;21075;-47
2021/10/16 07:31:28;;;;;;;29.72;7.12;;;;;;;23.12;54.41;100531.78;1745045;80;20999;-48
2021/10/16 07:33:56;;;;;;;10.48;4.70;;;;;;;23.14;54.44;100532.23;1751458;80;21062;-47
2021/10/16 07:36:23;;;;;;;22.02;5.22;;;;;;;23.14;54.48;100541.13;1717493;81;21091;-47
2021/10/16 07:38:51;;;;;;;79.05;14.73;;;;;;;23.13;54.49;100537.55;1719933;81;21352;-50
2021/10/16 07:41:18;;;;;;;39.18;8.30;;;;;;;23.14;54.49;100530.84;1706501;82;21142;-47
2021/10/16 07:43:44;;;;;;;50.58;11.80;;;;;;;23.15;54.51;100531.66;1698590;82;21230;-48
2021/10/16 07:46:11;;;;;;;28.45;7.17;;;;;;;23.14;54.51;100531.42;1722365;81;21569;-50
2021/10/16 07:48:37;;;;;;;7.95;4.83;;;;;;;23.14;54.55;100527.26;1708430;81;21154;-50
2021/10/16 07:51:03;;;;;;;6.17;4.50;;;;;;;23.14;54.46;100530.03;1724912;81;21277;-48
2021/10/16 07:53:29;;;;;;;7.85;5.25;;;;;;;23.13;54.29;100537.55;1733289;81;21145;-48
2021/10/16 07:55:55;;;;;;;7.58;5.10;;;;;;;23.12;54.13;100527.63;1727510;81;21050;-48
2021/10/16 07:58:22;;;;;;;10.15;6.65;;;;;;;23.12;53.98;100528.19;1727831;81;21610;-49
2021/10/16 08:00:48;;;;;;;9.43;6.75;;;;;;;23.11;53.83;100535.70;1720551;81;21118;-49
2021/10/16 08:03:14;;;;;;;12.05;8.93;;;;;;;23.10;53.70;100531.30;1704199;82;21240;-51
2021/10/16 08:05:40;;;;;;;13.62;9.18;;;;;;;23.11;53.64;100537.66;1711163;81;21094;-49
2021/10/16 08:08:06;;;;;;;38.23;18.02;;;;;;;23.09;53.58;100538.56;1710555;81;20980;-51
2021/10/16 08:10:32;;;;;;;26.50;17.92;;;;;;;23.07;53.60;100534.77;1713221;81;21078;-45
2021/10/16 08:12:58;;;;;;;54.60;24.65;;;;;;;23.08;53.65;100537.78;1718618;81;21675;-49
2021/10/16 08:15:25;;;;;;;42.05;22.82;;;;;;;23.08;53.72;100541.13;1717855;81;21140;-51
2021/10/16 08:17:51;;;;;;;117.80;45.35;;;;;;;23.09;53.79;100545.50;1729854;81;21143;-47
2021/10/16 08:20:17;;;;;;;71.05;33.67;;;;;;;23.09;53.85;100540.77;1725015;81;20932;-50
2021/10/16 08:22:43;;;;;;;37.30;23.90;;;;;;;23.09;53.93;100543.54;1722898;81;21062;-49
2021/10/16 08:25:11;;;;;;;46.40;24.82;;;;;;;23.12;53.99;100540.68;1713608;81;21183;-52
2021/10/16 08:27:37;;;;;;;59.98;29.72;;;;;;;23.13;54.07;100540.89;1728857;81;21359;-52
2021/10/16 08:30:05;;;;;;;52.53;27.62;;;;;;;23.15;54.13;100541.38;1718630;81;21179;-50
2021/10/16 08:32:31;;;;;;;58.85;29.30;;;;;;;23.16;54.18;100549.37;1729775;81;21095;-49
2021/10/16 08:34:58;;;;;;;49.58;27.75;;;;;;;23.16;54.25;100539.66;1727758;81;21074;-49
2021/10/16 08:37:24;;;;;;;39.00;24.77;;;;;;;23.17;54.31;100547.38;1689716;82;21643;-52
2021/10/16 08:39:50;;;;;;;39.33;24.50;;;;;;;23.17;54.39;100547.38;1738132;80;21251;-50
2021/10/16 08:42:16;;;;;;;39.78;22.85;;;;;;;23.17;54.44;100555.13;1727412;80;21515;-50
2021/10/16 08:44:42;;;;;;;32.58;21.48;;;;;;;23.14;54.48;100551.66;1709636;82;20989;-50
2021/10/16 08:47:08;;;;;;;31.75;21.02;;;;;;;23.15;54.54;100555.25;1719349;81;20995;-52
2021/10/16 08:49:34;;;;;;;28.12;20.15;;;;;;;23.15;54.60;100553.86;1638419;84;21052;-52
2021/10/16 08:52:00;;;;;;;31.27;21.35;;;;;;;23.14;54.64;100555.83;1733383;80;21299;-50
2021/10/16 08:54:26;;;;;;;30.37;18.73;;;;;;;23.12;54.72;100567.86;1714133;82;21158;-50
2021/10/16 08:56:52;;;;;;;27.37;18.27;;;;;;;23.15;54.82;100573.30;1724193;81;20905;-53
2021/10/16 08:59:18;;;;;;;31.10;17.87;;;;;;;23.17;54.94;100575.95;1710795;82;20971;-50
2021/10/16 09:02:02;;;;;;;34.15;18.60;;;;;;;23.19;55.11;100574.23;1747591;80;20904;-53
2021/10/16 09:04:29;;;;;;;61.88;24.07;;;;;;;23.22;55.27;100567.42;1748655;80;21439;-49
2021/10/16 09:06:55;;;;;;;65.37;22.77;;;;;;;23.25;55.37;100566.52;1730599;80;21005;-53
2021/10/16 09:09:27;;;;;;;62.45;23.57;;;;;;;23.27;55.43;100566.40;1696430;81;21832;-52
2021/10/16 09:11:56;;;;;;;38.73;20.37;;;;;;;23.30;55.41;100562.14;1746470;80;21091;-54
2021/10/16 09:14:27;;;;;;;31.75;16.82;;;;;;;23.31;55.38;100563.75;1722866;81;21022;-51
2021/10/16 09:16:59;;;;;;;26.75;15.70;;;;;;;23.31;55.37;100559.01;1706198;81;21693;-51
2021/10/16 09:19:34;;;;;;;28.20;16.27;;;;;;;23.31;55.35;100563.17;1748481;80;21084;-53
2021/10/16 09:22:09;;;;;;;26.33;15.83;;;;;;;23.32;55.34;100565.38;1749075;80;21472;-52
2021/10/16 09:24:46;;;;;;;33.92;16.15;;;;;;;23.31;55.30;100564.56;1748463;80;21172;-52
2021/10/16 09:27:16;;;;;;;30.45;15.13;;;;;;;23.30;55.31;100568.48;1739415;80;21578;-53
2021/10/16 09:29:46;;;;;;;27.45;15.60;;;;;;;23.29;55.30;100563.29;1747409;80;21136;-51
2021/10/16 09:32:21;;;;;;;26.52;13.85;;;;;;;23.28;55.30;100565.83;1749339;80;21538;-52
2021/10/16 09:34:49;;;;;;;19.42;13.25;;;;;;;23.26;55.30;100566.16;1743901;80;21005;-54
2021/10/16 09:37:18;;;;;;;24.37;13.85;;;;;;;23.23;55.33;100561.30;1738344;80;21085;-51
2021/10/16 09:39:56;;;;;;;20.17;13.25;;;;;;;23.22;55.34;100567.42;1740518;80;21012;-51
2021/10/16 09:42:40;;;;;;;20.43;12.53;;;;;;;23.21;55.34;100570.55;1752154;80;21702;-52
2021/10/16 09:45:09;;;;;;;19.07;11.93;;;;;;;23.18;55.36;100574.80;1737245;80;21243;-50
2021/10/16 09:47:35;;;;;;;19.55;11.80;;;;;;;23.17;55.37;100584.84;1739842;80;21554;-50
2021/10/16 09:50:07;;;;;;;18.25;11.45;;;;;;;23.14;55.39;100579.41;1740103;80;21093;-50
2021/10/16 09:52:35;;;;;;;17.15;10.78;;;;;;;23.14;55.43;100579.98;1740009;80;21097;-52
2021/10/16 09:55:01;;;;;;;18.42;11.03;;;;;;;23.12;55.46;100587.86;1746426;80;22166;-53
2021/10/16 09:57:27;;;;;;;18.27;10.72;;;;;;;23.10;55.46;100585.98;1748271;80;20877;-50
2021/10/16 09:59:53;;;;;;;15.13;10.15;;;;;;;23.08;55.49;100600.22;1756993;80;20915;-49
2021/10/16 10:02:19;;;;;;;13.25;9.60;;;;;;;23.08;55.51;100595.23;1740047;80;20927;-51
2021/10/16 10:04:47;;;;;;;16.00;9.35;;;;;;;23.06;55.51;100596.14;1748378;80;21739;-52
2021/10/16 10:07:16;;;;;;;15.83;9.60;;;;;;;23.05;55.52;100587.57;1709794;82;21494;-49
2021/10/16 10:09:43;;;;;;;14.75;9.45;;;;;;;23.04;55.53;100592.30;1734098;80;21501;-50
2021/10/16 10:12:10;;;;;;;12.03;8.75;;;;;;;23.02;55.58;100590.46;1754997;81;21153;-49
2021/10/16 10:14:40;;;;;;;12.78;8.58;;;;;;;23.03;55.58;100588.50;1741403;80;21091;-54
2021/10/16 10:17:06;;;;;;;14.95;8.63;;;;;;;23.01;55.58;100590.78;1741349;80;21104;-53
2021/10/16 10:19:38;;;;;;;15.03;8.55;;;;;;;23.01;55.59;100588.02;1742067;80;21928;-51
2021/10/16 10:22:11;;;;;;;11.40;8.03;;;;;;;22.98;55.61;100591.48;1747221;80;21011;-54
2021/10/16 10:24:39;;;;;;;12.47;7.40;;;;;;;22.98;55.62;100582.58;1750023;80;21148;-54
2021/10/16 10:27:07;;;;;;;11.38;7.62;;;;;;;22.97;55.61;100593.44;1742963;80;21008;-51
2021/10/16 10:29:37;;;;;;;12.07;7.55;;;;;;;22.96;55.63;100588.21;1744679;80;21565;-51
2021/10/16 10:32:08;;;;;;;10.65;7.62;;;;;;;22.95;55.63;100587.42;1719652;80;21526;-53
2021/10/16 10:34:38;;;;;;;10.63;7.20;;;;;;;22.94;55.63;100596.08;1718027;81;21488;-53
2021/10/16 10:37:11;;;;;;;10.40;6.57;;;;;;;22.92;55.63;100590.04;1714275;81;21081;-50
2021/10/16 10:39:41;;;;;;;9.73;6.85;;;;;;;22.92;55.65;100590.86;1716795;82;21110;-50
2021/10/16 10:42:17;;;;;;;11.43;6.80;;;;;;;22.91;55.63;100589.26;1711515;82;36215;-51
2021/10/16 10:44:49;;;;;;;10.55;7.03;;;;;;;22.90;55.64;100589.59;1712157;82;21962;-52
2021/10/16 10:47:34;;;;;;;12.13;6.80;;;;;;;22.89;55.64;100587.38;1737065;80;21556;-52
2021/10/16 10:50:08;;;;;;;9.08;6.25;;;;;;;22.89;55.64;100587.95;1741526;80;21061;-52
2021/10/16 10:53:03;;;;;;;10.72;6.15;;;;;;;22.88;55.64;100594.64;1729717;81;21494;-51
2021/10/16 10:55:29;;;;;;;8.80;5.55;;;;;;;22.87;55.64;100588.88;1720083;80;21017;-53
2021/10/16 10:57:58;;;;;;;8.80;6.45;;;;;;;22.86;55.63;100589.45;1743657;80;21119;-57
2021/10/16 11:00:38;;;;;;;10.23;5.75;;;;;;;22.86;55.64;100585.86;1738968;80;21200;-55
2021/10/16 11:03:32;;;;;;;8.75;5.62;;;;;;;22.84;55.64;100585.38;1741510;80;21083;-51
2021/10/16 11:06:17;;;;;;;9.15;6.17;;;;;;;22.84;55.66;100585.38;1753730;80;21012;-52
2021/10/16 11:08:43;;;;;;;8.08;5.20;;;;;;;22.83;55.65;100583.17;1700195;82;21027;-51
2021/10/16 11:11:09;;;;;;;8.85;5.67;;;;;;;22.82;55.66;100580.75;1684654;82;21970;-51
2021/10/16 11:13:36;;;;;;;7.45;5.25;;;;;;;22.81;55.64;100580.51;1695824;82;20995;-50
2021/10/16 11:16:05;;;;;;;7.37;5.17;;;;;;;22.81;55.66;100579.94;1694633;82;21603;-53
2021/10/16 11:18:31;;;;;;;8.40;5.40;;;;;;;22.80;55.67;100581.08;1730520;80;21678;-53
2021/10/16 11:21:10;;;;;;;6.60;4.80;;;;;;;22.79;55.67;100572.52;1712034;81;21083;-52
2021/10/16 11:23:38;;;;;;;7.67;5.00;;;;;;;22.79;55.68;100584.22;1741124;80;21066;-50